Currently 77°F in Pinon Hills, California, USA
77°F
95°F / 74°F
2 mph NE
0.00"
Thursday, July 19, 2018 10:02 PM PDT

Pinon Hills, California Climate Summary
Typical June Day

Normal High:    89.7°F (32.1°C)
Normal Low:    62.7°F (17.0°C)
Average:    76.5°F (24.7°C)

Hour    Temperature    Wind Speed    Humidity
12:00 AM    69°F (21°C)    3 mph    29%
1:00 AM    68°F (20°C)    3 mph    29%
2:00 AM    67°F (20°C)    3 mph    29%
3:00 AM    67°F (19°C)    2 mph    29%
4:00 AM    66°F (19°C)    2 mph    30%
5:00 AM    65°F (18°C)    2 mph    30%
6:00 AM    65°F (18°C)    2 mph    29%
7:00 AM    70°F (21°C)    2 mph    26%
8:00 AM    76°F (24°C)    3 mph    22%
9:00 AM    78°F (26°C)    2 mph    20%
10:00 AM    81°F (27°C)    2 mph    18%
11:00 AM    83°F (28°C)    3 mph    15%
12:00 PM    85°F (29°C)    3 mph    14%
1:00 PM    87°F (30°C)    4 mph    12%
2:00 PM    88°F (31°C)    4 mph    12%
3:00 PM    88°F (31°C)    4 mph    12%
4:00 PM    88°F (31°C)    5 mph    13%
5:00 PM    87°F (30°C)    5 mph    14%
6:00 PM    85°F (30°C)    5 mph    15%
7:00 PM    83°F (28°C)    5 mph    17%
8:00 PM    78°F (26°C)    4 mph    22%
9:00 PM    74°F (23°C)    3 mph    26%
10:00 PM    72°F (22°C)    2 mph    28%
11:00 PM    70°F (21°C)    3 mph    29%
 

The Pinon Hills, California weather pages are a service of WeatherCurrents.
Copyright ©Thu Jul 19 22:02:44 PDT 2018  WeatherCurrents. All rights reserved. - Submit questions and comments - Privacy Policy